sensor_id;sensor_type;location;lat;lon;timestamp;P1;durP1;ratioP1;P2;durP2;ratioP2
22786;SDS011;63134;52.020;4.714;2022-11-11T00:04:07;37.35;;;20.25;;
22786;SDS011;63134;52.020;4.714;2022-11-11T00:07:11;38.17;;;20.70;;
22786;SDS011;63134;52.020;4.714;2022-11-11T00:10:16;41.97;;;21.90;;
22786;SDS011;63134;52.020;4.714;2022-11-11T00:13:20;48.28;;;21.48;;
22786;SDS011;63134;52.020;4.714;2022-11-11T00:16:26;43.50;;;24.00;;
22786;SDS011;63134;52.020;4.714;2022-11-11T00:19:51;41.90;;;23.50;;
22786;SDS011;63134;52.020;4.714;2022-11-11T00:23:18;41.63;;;23.00;;
22786;SDS011;63134;52.020;4.714;2022-11-11T00:26:47;36.92;;;23.05;;
22786;SDS011;63134;52.020;4.714;2022-11-11T00:33:20;48.30;;;25.52;;
22786;SDS011;63134;52.020;4.714;2022-11-11T00:36:24;44.08;;;25.00;;
22786;SDS011;63134;52.020;4.714;2022-11-11T00:42:34;39.97;;;24.95;;
22786;SDS011;63134;52.020;4.714;2022-11-11T00:45:42;39.33;;;24.67;;
22786;SDS011;63134;52.020;4.714;2022-11-11T00:48:47;43.70;;;25.27;;
22786;SDS011;63134;52.020;4.714;2022-11-11T00:52:09;45.00;;;25.17;;
22786;SDS011;63134;52.020;4.714;2022-11-11T00:55:14;42.58;;;25.63;;
22786;SDS011;63134;52.020;4.714;2022-11-11T00:58:18;41.28;;;25.80;;
22786;SDS011;63134;52.020;4.714;2022-11-11T01:01:23;45.08;;;24.63;;
22786;SDS011;63134;52.020;4.714;2022-11-11T01:04:28;40.58;;;25.40;;
22786;SDS011;63134;52.020;4.714;2022-11-11T01:07:32;42.42;;;25.73;;
22786;SDS011;63134;52.020;4.714;2022-11-11T01:10:40;45.90;;;25.48;;
22786;SDS011;63134;52.020;4.714;2022-11-11T01:16:50;46.03;;;26.40;;
22786;SDS011;63134;52.020;4.714;2022-11-11T01:19:54;48.67;;;27.33;;
22786;SDS011;63134;52.020;4.714;2022-11-11T01:23:04;46.08;;;28.10;;
22786;SDS011;63134;52.020;4.714;2022-11-11T01:26:14;49.45;;;28.42;;
22786;SDS011;63134;52.020;4.714;2022-11-11T01:29:19;51.53;;;27.90;;
22786;SDS011;63134;52.020;4.714;2022-11-11T01:32:24;48.58;;;27.67;;
22786;SDS011;63134;52.020;4.714;2022-11-11T01:35:28;44.33;;;29.30;;
22786;SDS011;63134;52.020;4.714;2022-11-11T01:38:33;47.63;;;29.90;;
22786;SDS011;63134;52.020;4.714;2022-11-11T01:41:38;51.30;;;30.67;;
22786;SDS011;63134;52.020;4.714;2022-11-11T01:44:44;53.67;;;30.52;;
22786;SDS011;63134;52.020;4.714;2022-11-11T01:47:50;54.25;;;29.65;;
22786;SDS011;63134;52.020;4.714;2022-11-11T01:55:18;56.67;;;30.73;;
22786;SDS011;63134;52.020;4.714;2022-11-11T01:58:25;57.03;;;32.05;;
22786;SDS011;63134;52.020;4.714;2022-11-11T02:01:30;51.80;;;30.90;;
22786;SDS011;63134;52.020;4.714;2022-11-11T02:04:35;49.22;;;28.98;;
22786;SDS011;63134;52.020;4.714;2022-11-11T02:07:59;59.05;;;30.15;;
22786;SDS011;63134;52.020;4.714;2022-11-11T02:11:15;53.20;;;29.65;;
22786;SDS011;63134;52.020;4.714;2022-11-11T02:14:44;57.38;;;29.60;;
22786;SDS011;63134;52.020;4.714;2022-11-11T02:17:51;50.47;;;31.08;;
22786;SDS011;63134;52.020;4.714;2022-11-11T02:20:56;56.50;;;31.02;;
22786;SDS011;63134;52.020;4.714;2022-11-11T02:27:26;62.38;;;32.40;;
22786;SDS011;63134;52.020;4.714;2022-11-11T02:30:33;61.40;;;33.65;;
22786;SDS011;63134;52.020;4.714;2022-11-11T02:33:37;59.55;;;32.03;;
22786;SDS011;63134;52.020;4.714;2022-11-11T02:36:42;55.85;;;32.50;;
22786;SDS011;63134;52.020;4.714;2022-11-11T02:39:48;53.50;;;32.47;;
22786;SDS011;63134;52.020;4.714;2022-11-11T02:43:10;55.95;;;33.20;;
22786;SDS011;63134;52.020;4.714;2022-11-11T02:46:14;56.55;;;32.65;;
22786;SDS011;63134;52.020;4.714;2022-11-11T02:49:21;55.53;;;34.33;;
22786;SDS011;63134;52.020;4.714;2022-11-11T02:52:25;57.65;;;33.72;;
22786;SDS011;63134;52.020;4.714;2022-11-11T02:55:29;57.05;;;33.92;;
22786;SDS011;63134;52.020;4.714;2022-11-11T02:58:34;64.00;;;35.45;;
22786;SDS011;63134;52.020;4.714;2022-11-11T03:01:39;57.10;;;32.05;;
22786;SDS011;63134;52.020;4.714;2022-11-11T03:04:47;56.10;;;33.85;;
22786;SDS011;63134;52.020;4.714;2022-11-11T03:07:52;70.47;;;33.72;;
22786;SDS011;63134;52.020;4.714;2022-11-11T03:10:56;68.10;;;36.22;;
22786;SDS011;63134;52.020;4.714;2022-11-11T03:14:00;60.63;;;33.55;;
22786;SDS011;63134;52.020;4.714;2022-11-11T03:17:04;57.13;;;34.58;;
22786;SDS011;63134;52.020;4.714;2022-11-11T03:20:30;57.15;;;31.48;;
22786;SDS011;63134;52.020;4.714;2022-11-11T03:23:53;64.32;;;31.48;;
22786;SDS011;63134;52.020;4.714;2022-11-11T03:26:58;52.55;;;32.15;;
22786;SDS011;63134;52.020;4.714;2022-11-11T03:30:03;58.72;;;33.80;;
22786;SDS011;63134;52.020;4.714;2022-11-11T03:33:07;60.85;;;32.42;;
22786;SDS011;63134;52.020;4.714;2022-11-11T03:36:15;64.20;;;33.80;;
22786;SDS011;63134;52.020;4.714;2022-11-11T03:39:19;55.63;;;33.20;;
22786;SDS011;63134;52.020;4.714;2022-11-11T03:42:23;53.08;;;31.70;;
22786;SDS011;63134;52.020;4.714;2022-11-11T03:45:27;55.00;;;30.60;;
22786;SDS011;63134;52.020;4.714;2022-11-11T03:48:32;59.55;;;33.03;;
22786;SDS011;63134;52.020;4.714;2022-11-11T03:51:37;59.45;;;33.83;;
22786;SDS011;63134;52.020;4.714;2022-11-11T03:54:41;53.67;;;32.97;;
22786;SDS011;63134;52.020;4.714;2022-11-11T03:57:48;55.97;;;31.50;;
22786;SDS011;63134;52.020;4.714;2022-11-11T04:00:53;52.50;;;29.83;;
22786;SDS011;63134;52.020;4.714;2022-11-11T04:03:58;48.97;;;29.05;;
22786;SDS011;63134;52.020;4.714;2022-11-11T04:07:21;54.60;;;29.33;;
22786;SDS011;63134;52.020;4.714;2022-11-11T04:10:43;46.00;;;29.50;;
22786;SDS011;63134;52.020;4.714;2022-11-11T04:13:48;55.10;;;30.77;;
22786;SDS011;63134;52.020;4.714;2022-11-11T04:17:11;49.88;;;30.92;;
22786;SDS011;63134;52.020;4.714;2022-11-11T04:20:23;51.58;;;32.15;;
22786;SDS011;63134;52.020;4.714;2022-11-11T04:23:46;59.03;;;31.52;;
22786;SDS011;63134;52.020;4.714;2022-11-11T04:26:52;58.45;;;32.50;;
22786;SDS011;63134;52.020;4.714;2022-11-11T04:29:57;51.78;;;30.00;;
22786;SDS011;63134;52.020;4.714;2022-11-11T04:33:01;50.67;;;32.22;;
22786;SDS011;63134;52.020;4.714;2022-11-11T04:36:06;52.75;;;31.65;;
22786;SDS011;63134;52.020;4.714;2022-11-11T04:39:10;50.33;;;32.80;;
22786;SDS011;63134;52.020;4.714;2022-11-11T04:42:33;59.88;;;34.20;;
22786;SDS011;63134;52.020;4.714;2022-11-11T04:45:38;57.67;;;32.65;;
22786;SDS011;63134;52.020;4.714;2022-11-11T04:48:45;56.63;;;32.25;;
22786;SDS011;63134;52.020;4.714;2022-11-11T04:51:49;47.47;;;30.90;;
22786;SDS011;63134;52.020;4.714;2022-11-11T04:55:12;52.05;;;31.63;;
22786;SDS011;63134;52.020;4.714;2022-11-11T04:58:36;54.00;;;30.63;;
22786;SDS011;63134;52.020;4.714;2022-11-11T05:01:40;47.20;;;28.98;;
22786;SDS011;63134;52.020;4.714;2022-11-11T05:05:04;54.90;;;33.47;;
22786;SDS011;63134;52.020;4.714;2022-11-11T05:08:12;48.40;;;29.75;;
22786;SDS011;63134;52.020;4.714;2022-11-11T05:11:35;51.63;;;31.40;;
22786;SDS011;63134;52.020;4.714;2022-11-11T05:14:39;58.72;;;32.95;;
22786;SDS011;63134;52.020;4.714;2022-11-11T05:18:02;52.90;;;29.80;;
22786;SDS011;63134;52.020;4.714;2022-11-11T05:21:26;54.28;;;33.30;;
22786;SDS011;63134;52.020;4.714;2022-11-11T05:24:32;59.33;;;32.83;;
22786;SDS011;63134;52.020;4.714;2022-11-11T05:27:56;52.38;;;32.55;;
22786;SDS011;63134;52.020;4.714;2022-11-11T05:31:00;50.65;;;32.53;;
22786;SDS011;63134;52.020;4.714;2022-11-11T05:34:05;50.97;;;33.45;;
22786;SDS011;63134;52.020;4.714;2022-11-11T05:37:10;54.13;;;31.02;;
22786;SDS011;63134;52.020;4.714;2022-11-11T05:43:19;45.78;;;29.35;;
22786;SDS011;63134;52.020;4.714;2022-11-11T05:46:23;54.78;;;30.67;;
22786;SDS011;63134;52.020;4.714;2022-11-11T05:49:27;48.42;;;30.52;;
22786;SDS011;63134;52.020;4.714;2022-11-11T05:52:32;47.88;;;31.30;;
22786;SDS011;63134;52.020;4.714;2022-11-11T05:55:37;50.20;;;27.55;;
22786;SDS011;63134;52.020;4.714;2022-11-11T05:58:41;43.50;;;27.85;;
22786;SDS011;63134;52.020;4.714;2022-11-11T06:01:52;38.70;;;26.73;;
22786;SDS011;63134;52.020;4.714;2022-11-11T06:04:57;44.70;;;26.98;;
22786;SDS011;63134;52.020;4.714;2022-11-11T06:08:02;41.55;;;25.33;;
22786;SDS011;63134;52.020;4.714;2022-11-11T06:11:06;47.17;;;28.48;;
22786;SDS011;63134;52.020;4.714;2022-11-11T06:14:11;48.10;;;29.00;;
22786;SDS011;63134;52.020;4.714;2022-11-11T06:17:18;48.40;;;29.33;;
22786;SDS011;63134;52.020;4.714;2022-11-11T06:20:23;47.63;;;30.13;;
22786;SDS011;63134;52.020;4.714;2022-11-11T06:23:28;54.40;;;33.22;;
22786;SDS011;63134;52.020;4.714;2022-11-11T06:26:32;52.60;;;31.33;;
22786;SDS011;63134;52.020;4.714;2022-11-11T06:29:39;48.72;;;32.45;;
22786;SDS011;63134;52.020;4.714;2022-11-11T06:32:43;54.47;;;32.88;;
22786;SDS011;63134;52.020;4.714;2022-11-11T06:35:48;44.10;;;29.88;;
22786;SDS011;63134;52.020;4.714;2022-11-11T06:38:52;54.95;;;31.40;;
22786;SDS011;63134;52.020;4.714;2022-11-11T06:41:57;47.97;;;29.58;;
22786;SDS011;63134;52.020;4.714;2022-11-11T06:45:02;45.83;;;30.40;;
22786;SDS011;63134;52.020;4.714;2022-11-11T06:48:07;49.63;;;31.13;;
22786;SDS011;63134;52.020;4.714;2022-11-11T06:51:11;49.50;;;32.20;;
22786;SDS011;63134;52.020;4.714;2022-11-11T06:54:17;48.92;;;31.38;;
22786;SDS011;63134;52.020;4.714;2022-11-11T06:57:24;57.05;;;32.42;;
22786;SDS011;63134;52.020;4.714;2022-11-11T07:00:28;46.97;;;32.55;;
22786;SDS011;63134;52.020;4.714;2022-11-11T07:03:33;51.47;;;30.52;;
22786;SDS011;63134;52.020;4.714;2022-11-11T07:06:37;47.40;;;31.70;;
22786;SDS011;63134;52.020;4.714;2022-11-11T07:09:44;40.33;;;28.23;;
22786;SDS011;63134;52.020;4.714;2022-11-11T07:12:49;47.75;;;28.63;;
22786;SDS011;63134;52.020;4.714;2022-11-11T07:15:53;44.43;;;28.47;;
22786;SDS011;63134;52.020;4.714;2022-11-11T07:18:58;47.33;;;29.77;;
22786;SDS011;63134;52.020;4.714;2022-11-11T07:22:03;53.25;;;30.17;;
22786;SDS011;63134;52.020;4.714;2022-11-11T07:25:07;51.70;;;29.48;;
22786;SDS011;63134;52.020;4.714;2022-11-11T07:28:12;47.88;;;30.95;;
22786;SDS011;63134;52.020;4.714;2022-11-11T07:31:17;48.50;;;32.25;;
22786;SDS011;63134;52.020;4.714;2022-11-11T07:34:21;49.53;;;31.33;;
22786;SDS011;63134;52.020;4.714;2022-11-11T07:37:26;47.58;;;31.42;;
22786;SDS011;63134;52.020;4.714;2022-11-11T07:40:30;48.28;;;32.70;;
22786;SDS011;63134;52.020;4.714;2022-11-11T07:43:35;54.65;;;30.70;;
22786;SDS011;63134;52.020;4.714;2022-11-11T07:46:39;51.92;;;31.60;;
22786;SDS011;63134;52.020;4.714;2022-11-11T07:49:45;50.03;;;30.55;;
22786;SDS011;63134;52.020;4.714;2022-11-11T07:52:50;45.92;;;29.85;;
22786;SDS011;63134;52.020;4.714;2022-11-11T07:55:55;41.38;;;30.45;;
22786;SDS011;63134;52.020;4.714;2022-11-11T07:58:59;45.65;;;28.88;;
22786;SDS011;63134;52.020;4.714;2022-11-11T08:02:03;45.95;;;31.38;;
22786;SDS011;63134;52.020;4.714;2022-11-11T08:05:08;40.72;;;29.83;;
22786;SDS011;63134;52.020;4.714;2022-11-11T08:08:13;54.08;;;29.75;;
22786;SDS011;63134;52.020;4.714;2022-11-11T08:11:17;37.78;;;29.48;;
22786;SDS011;63134;52.020;4.714;2022-11-11T08:14:43;42.42;;;29.30;;
22786;SDS011;63134;52.020;4.714;2022-11-11T08:17:48;40.25;;;26.83;;
22786;SDS011;63134;52.020;4.714;2022-11-11T08:20:52;42.30;;;26.63;;
22786;SDS011;63134;52.020;4.714;2022-11-11T08:23:58;41.95;;;26.67;;
22786;SDS011;63134;52.020;4.714;2022-11-11T08:27:22;40.30;;;26.98;;
22786;SDS011;63134;52.020;4.714;2022-11-11T08:30:26;43.67;;;27.23;;
22786;SDS011;63134;52.020;4.714;2022-11-11T08:33:31;39.17;;;25.30;;
22786;SDS011;63134;52.020;4.714;2022-11-11T08:36:38;41.45;;;23.73;;
22786;SDS011;63134;52.020;4.714;2022-11-11T08:39:42;36.50;;;24.65;;
22786;SDS011;63134;52.020;4.714;2022-11-11T08:42:47;35.15;;;24.00;;
22786;SDS011;63134;52.020;4.714;2022-11-11T08:45:52;30.17;;;24.13;;
22786;SDS011;63134;52.020;4.714;2022-11-11T08:48:56;38.83;;;24.87;;
22786;SDS011;63134;52.020;4.714;2022-11-11T08:52:01;42.40;;;25.35;;
22786;SDS011;63134;52.020;4.714;2022-11-11T08:55:08;29.48;;;24.08;;
22786;SDS011;63134;52.020;4.714;2022-11-11T08:58:17;40.45;;;24.75;;
22786;SDS011;63134;52.020;4.714;2022-11-11T09:01:22;35.70;;;23.90;;
22786;SDS011;63134;52.020;4.714;2022-11-11T09:04:27;39.78;;;23.67;;
22786;SDS011;63134;52.020;4.714;2022-11-11T09:07:52;41.50;;;23.15;;
22786;SDS011;63134;52.020;4.714;2022-11-11T09:10:57;39.67;;;23.83;;
22786;SDS011;63134;52.020;4.714;2022-11-11T09:14:02;41.13;;;23.90;;
22786;SDS011;63134;52.020;4.714;2022-11-11T09:17:10;32.03;;;22.73;;
22786;SDS011;63134;52.020;4.714;2022-11-11T09:20:14;36.03;;;20.05;;
22786;SDS011;63134;52.020;4.714;2022-11-11T09:23:26;33.15;;;20.92;;
22786;SDS011;63134;52.020;4.714;2022-11-11T09:26:31;31.98;;;20.02;;
22786;SDS011;63134;52.020;4.714;2022-11-11T09:29:35;28.33;;;20.15;;
22786;SDS011;63134;52.020;4.714;2022-11-11T09:32:40;26.77;;;19.08;;
22786;SDS011;63134;52.020;4.714;2022-11-11T09:35:44;26.73;;;17.05;;
22786;SDS011;63134;52.020;4.714;2022-11-11T09:38:51;27.63;;;17.83;;
22786;SDS011;63134;52.020;4.714;2022-11-11T09:52:19;31.95;;;18.60;;
22786;SDS011;63134;52.020;4.714;2022-11-11T09:59:07;27.33;;;18.98;;
22786;SDS011;63134;52.020;4.714;2022-11-11T10:02:29;21.58;;;17.15;;
22786;SDS011;63134;52.020;4.714;2022-11-11T10:05:49;28.50;;;17.48;;
22786;SDS011;63134;52.020;4.714;2022-11-11T10:09:00;22.73;;;15.95;;
22786;SDS011;63134;52.020;4.714;2022-11-11T10:12:25;23.23;;;17.50;;
22786;SDS011;63134;52.020;4.714;2022-11-11T10:16:06;24.08;;;16.65;;
22786;SDS011;63134;52.020;4.714;2022-11-11T10:23:24;25.23;;;16.90;;
22786;SDS011;63134;52.020;4.714;2022-11-11T10:26:35;26.13;;;16.38;;
22786;SDS011;63134;52.020;4.714;2022-11-11T10:29:42;26.55;;;16.02;;
22786;SDS011;63134;52.020;4.714;2022-11-11T10:33:03;22.20;;;15.82;;
22786;SDS011;63134;52.020;4.714;2022-11-11T10:36:18;23.65;;;16.08;;
22786;SDS011;63134;52.020;4.714;2022-11-11T10:42:56;21.50;;;15.32;;
22786;SDS011;63134;52.020;4.714;2022-11-11T10:46:03;19.90;;;15.10;;
22786;SDS011;63134;52.020;4.714;2022-11-11T10:49:21;25.05;;;15.07;;
22786;SDS011;63134;52.020;4.714;2022-11-11T10:52:35;19.88;;;14.32;;
22786;SDS011;63134;52.020;4.714;2022-11-11T10:55:48;20.60;;;14.60;;
22786;SDS011;63134;52.020;4.714;2022-11-11T10:59:24;22.30;;;14.82;;
22786;SDS011;63134;52.020;4.714;2022-11-11T11:05:43;22.77;;;14.05;;
22786;SDS011;63134;52.020;4.714;2022-11-11T11:08:58;21.85;;;13.98;;
22786;SDS011;63134;52.020;4.714;2022-11-11T11:12:16;22.25;;;15.50;;
22786;SDS011;63134;52.020;4.714;2022-11-11T11:18:33;20.17;;;15.45;;
22786;SDS011;63134;52.020;4.714;2022-11-11T11:21:50;25.92;;;18.25;;
22786;SDS011;63134;52.020;4.714;2022-11-11T11:25:09;26.50;;;18.40;;
22786;SDS011;63134;52.020;4.714;2022-11-11T11:31:22;20.95;;;12.35;;
22786;SDS011;63134;52.020;4.714;2022-11-11T11:34:45;23.15;;;12.55;;
22786;SDS011;63134;52.020;4.714;2022-11-11T11:37:53;17.08;;;10.85;;
22786;SDS011;63134;52.020;4.714;2022-11-11T11:40:59;16.25;;;10.88;;
22786;SDS011;63134;52.020;4.714;2022-11-11T11:44:23;18.80;;;11.38;;
22786;SDS011;63134;52.020;4.714;2022-11-11T11:51:44;25.90;;;14.10;;
22786;SDS011;63134;52.020;4.714;2022-11-11T11:55:12;18.33;;;13.25;;
22786;SDS011;63134;52.020;4.714;2022-11-11T12:01:50;21.27;;;12.93;;
22786;SDS011;63134;52.020;4.714;2022-11-11T12:11:43;16.45;;;11.52;;
22786;SDS011;63134;52.020;4.714;2022-11-11T12:14:52;13.38;;;10.63;;
22786;SDS011;63134;52.020;4.714;2022-11-11T12:21:21;14.68;;;9.88;;
22786;SDS011;63134;52.020;4.714;2022-11-11T12:38:18;12.65;;;9.70;;
22786;SDS011;63134;52.020;4.714;2022-11-11T12:41:55;15.43;;;8.85;;
22786;SDS011;63134;52.020;4.714;2022-11-11T12:55:25;13.93;;;8.40;;
22786;SDS011;63134;52.020;4.714;2022-11-11T12:58:40;12.88;;;8.15;;
22786;SDS011;63134;52.020;4.714;2022-11-11T13:01:59;10.57;;;8.65;;
22786;SDS011;63134;52.020;4.714;2022-11-11T13:11:55;10.40;;;7.10;;
22786;SDS011;63134;52.020;4.714;2022-11-11T13:15:13;9.00;;;6.95;;
22786;SDS011;63134;52.020;4.714;2022-11-11T13:18:24;9.60;;;5.97;;
22786;SDS011;63134;52.020;4.714;2022-11-11T13:22:07;8.70;;;5.85;;
22786;SDS011;63134;52.020;4.714;2022-11-11T13:25:25;14.73;;;7.15;;
22786;SDS011;63134;52.020;4.714;2022-11-11T13:28:37;14.00;;;6.18;;
22786;SDS011;63134;52.020;4.714;2022-11-11T13:31:50;12.07;;;6.13;;
22786;SDS011;63134;52.020;4.714;2022-11-11T13:34:56;11.43;;;6.50;;
22786;SDS011;63134;52.020;4.714;2022-11-11T13:38:01;11.05;;;6.07;;
22786;SDS011;63134;52.020;4.714;2022-11-11T13:41:07;9.75;;;5.90;;
22786;SDS011;63134;52.020;4.714;2022-11-11T13:44:16;15.32;;;6.28;;
22786;SDS011;63134;52.020;4.714;2022-11-11T13:47:31;13.50;;;6.60;;
22786;SDS011;63134;52.020;4.714;2022-11-11T13:50:39;8.90;;;5.43;;
22786;SDS011;63134;52.020;4.714;2022-11-11T13:53:46;8.70;;;5.35;;
22786;SDS011;63134;52.020;4.714;2022-11-11T13:56:51;11.90;;;5.97;;
22786;SDS011;63134;52.020;4.714;2022-11-11T14:03:26;10.27;;;5.53;;
22786;SDS011;63134;52.020;4.714;2022-11-11T14:09:56;12.00;;;5.18;;
22786;SDS011;63134;52.020;4.714;2022-11-11T14:16:13;11.95;;;5.93;;
22786;SDS011;63134;52.020;4.714;2022-11-11T14:19:37;13.73;;;6.10;;
22786;SDS011;63134;52.020;4.714;2022-11-11T14:22:42;14.40;;;5.40;;
22786;SDS011;63134;52.020;4.714;2022-11-11T14:25:47;8.32;;;5.70;;
22786;SDS011;63134;52.020;4.714;2022-11-11T14:29:02;10.35;;;5.90;;
22786;SDS011;63134;52.020;4.714;2022-11-11T14:35:56;13.95;;;6.43;;
22786;SDS011;63134;52.020;4.714;2022-11-11T14:39:20;13.10;;;5.85;;
22786;SDS011;63134;52.020;4.714;2022-11-11T14:42:43;12.30;;;6.38;;
22786;SDS011;63134;52.020;4.714;2022-11-11T14:45:50;12.73;;;6.47;;
22786;SDS011;63134;52.020;4.714;2022-11-11T14:52:11;11.25;;;6.80;;
22786;SDS011;63134;52.020;4.714;2022-11-11T14:55:41;12.05;;;7.05;;
22786;SDS011;63134;52.020;4.714;2022-11-11T14:58:59;13.43;;;6.57;;
22786;SDS011;63134;52.020;4.714;2022-11-11T15:02:17;12.07;;;7.80;;
22786;SDS011;63134;52.020;4.714;2022-11-11T15:12:37;14.13;;;7.22;;
22786;SDS011;63134;52.020;4.714;2022-11-11T15:19:14;16.35;;;7.72;;
22786;SDS011;63134;52.020;4.714;2022-11-11T15:32:53;16.83;;;9.40;;
22786;SDS011;63134;52.020;4.714;2022-11-11T15:42:29;12.88;;;8.77;;
22786;SDS011;63134;52.020;4.714;2022-11-11T15:45:37;17.42;;;11.23;;
22786;SDS011;63134;52.020;4.714;2022-11-11T15:48:42;28.05;;;17.50;;
22786;SDS011;63134;52.020;4.714;2022-11-11T15:51:46;19.00;;;12.60;;
22786;SDS011;63134;52.020;4.714;2022-11-11T15:55:00;24.13;;;10.18;;
22786;SDS011;63134;52.020;4.714;2022-11-11T16:01:17;25.05;;;17.50;;
22786;SDS011;63134;52.020;4.714;2022-11-11T16:04:24;17.25;;;9.50;;
22786;SDS011;63134;52.020;4.714;2022-11-11T16:07:55;19.20;;;11.30;;
22786;SDS011;63134;52.020;4.714;2022-11-11T16:11:03;20.75;;;12.88;;
22786;SDS011;63134;52.020;4.714;2022-11-11T16:14:17;21.33;;;12.77;;
22786;SDS011;63134;52.020;4.714;2022-11-11T16:17:28;18.42;;;12.50;;
22786;SDS011;63134;52.020;4.714;2022-11-11T16:20:52;21.20;;;13.80;;
22786;SDS011;63134;52.020;4.714;2022-11-11T16:24:00;28.45;;;18.38;;
22786;SDS011;63134;52.020;4.714;2022-11-11T16:27:11;22.95;;;13.50;;
22786;SDS011;63134;52.020;4.714;2022-11-11T16:30:27;26.25;;;16.33;;
22786;SDS011;63134;52.020;4.714;2022-11-11T16:33:39;20.20;;;12.38;;
22786;SDS011;63134;52.020;4.714;2022-11-11T16:40:32;18.92;;;11.80;;
22786;SDS011;63134;52.020;4.714;2022-11-11T16:43:41;18.48;;;11.43;;
22786;SDS011;63134;52.020;4.714;2022-11-11T16:46:46;19.52;;;11.98;;
22786;SDS011;63134;52.020;4.714;2022-11-11T16:49:59;19.58;;;14.07;;
22786;SDS011;63134;52.020;4.714;2022-11-11T16:53:26;25.35;;;12.95;;
22786;SDS011;63134;52.020;4.714;2022-11-11T16:56:43;18.88;;;13.15;;
22786;SDS011;63134;52.020;4.714;2022-11-11T16:59:51;23.85;;;17.45;;
22786;SDS011;63134;52.020;4.714;2022-11-11T17:09:53;20.63;;;13.55;;
22786;SDS011;63134;52.020;4.714;2022-11-11T17:13:16;23.05;;;13.18;;
22786;SDS011;63134;52.020;4.714;2022-11-11T17:16:21;27.27;;;13.23;;
22786;SDS011;63134;52.020;4.714;2022-11-11T17:19:26;18.20;;;13.30;;
22786;SDS011;63134;52.020;4.714;2022-11-11T17:22:32;20.10;;;13.23;;
22786;SDS011;63134;52.020;4.714;2022-11-11T17:25:37;19.08;;;13.20;;
22786;SDS011;63134;52.020;4.714;2022-11-11T17:28:41;25.33;;;14.77;;
22786;SDS011;63134;52.020;4.714;2022-11-11T17:31:46;22.35;;;12.85;;
22786;SDS011;63134;52.020;4.714;2022-11-11T17:34:50;22.23;;;13.25;;
22786;SDS011;63134;52.020;4.714;2022-11-11T17:37:57;23.92;;;13.38;;
22786;SDS011;63134;52.020;4.714;2022-11-11T17:41:02;19.95;;;13.90;;
22786;SDS011;63134;52.020;4.714;2022-11-11T17:44:06;24.20;;;12.97;;
22786;SDS011;63134;52.020;4.714;2022-11-11T17:47:12;22.08;;;12.35;;
22786;SDS011;63134;52.020;4.714;2022-11-11T17:50:16;18.67;;;12.10;;
22786;SDS011;63134;52.020;4.714;2022-11-11T17:53:21;17.08;;;9.48;;
22786;SDS011;63134;52.020;4.714;2022-11-11T17:56:25;22.55;;;12.52;;
22786;SDS011;63134;52.020;4.714;2022-11-11T17:59:32;20.10;;;12.07;;
22786;SDS011;63134;52.020;4.714;2022-11-11T18:02:37;21.98;;;12.93;;
22786;SDS011;63134;52.020;4.714;2022-11-11T18:05:41;23.17;;;12.30;;
22786;SDS011;63134;52.020;4.714;2022-11-11T18:08:45;22.08;;;12.23;;
22786;SDS011;63134;52.020;4.714;2022-11-11T18:11:52;18.17;;;11.70;;
22786;SDS011;63134;52.020;4.714;2022-11-11T18:14:56;18.02;;;12.75;;
22786;SDS011;63134;52.020;4.714;2022-11-11T18:18:01;20.80;;;13.23;;
22786;SDS011;63134;52.020;4.714;2022-11-11T18:21:05;20.52;;;13.25;;
22786;SDS011;63134;52.020;4.714;2022-11-11T18:24:13;21.85;;;14.27;;
22786;SDS011;63134;52.020;4.714;2022-11-11T18:27:17;24.15;;;14.77;;
22786;SDS011;63134;52.020;4.714;2022-11-11T18:30:22;25.45;;;14.00;;
22786;SDS011;63134;52.020;4.714;2022-11-11T18:33:26;18.77;;;13.50;;
22786;SDS011;63134;52.020;4.714;2022-11-11T18:36:31;21.88;;;13.77;;
22786;SDS011;63134;52.020;4.714;2022-11-11T18:39:35;23.42;;;13.98;;
22786;SDS011;63134;52.020;4.714;2022-11-11T18:42:42;26.35;;;14.95;;
22786;SDS011;63134;52.020;4.714;2022-11-11T18:45:46;22.58;;;14.70;;
22786;SDS011;63134;52.020;4.714;2022-11-11T18:48:53;21.30;;;14.05;;
22786;SDS011;63134;52.020;4.714;2022-11-11T18:52:00;18.80;;;13.57;;
22786;SDS011;63134;52.020;4.714;2022-11-11T18:55:07;19.73;;;12.93;;
22786;SDS011;63134;52.020;4.714;2022-11-11T18:58:12;18.40;;;12.18;;
22786;SDS011;63134;52.020;4.714;2022-11-11T19:01:17;24.60;;;13.48;;
22786;SDS011;63134;52.020;4.714;2022-11-11T19:04:27;22.02;;;15.05;;
22786;SDS011;63134;52.020;4.714;2022-11-11T19:07:31;20.80;;;13.75;;
22786;SDS011;63134;52.020;4.714;2022-11-11T19:10:36;25.08;;;14.70;;
22786;SDS011;63134;52.020;4.714;2022-11-11T19:13:40;22.83;;;14.00;;
22786;SDS011;63134;52.020;4.714;2022-11-11T19:16:47;22.20;;;15.20;;
22786;SDS011;63134;52.020;4.714;2022-11-11T19:19:52;22.13;;;13.77;;
22786;SDS011;63134;52.020;4.714;2022-11-11T19:26:02;27.08;;;13.65;;
22786;SDS011;63134;52.020;4.714;2022-11-11T19:29:07;24.35;;;15.13;;
22786;SDS011;63134;52.020;4.714;2022-11-11T19:32:13;28.25;;;16.27;;
22786;SDS011;63134;52.020;4.714;2022-11-11T19:35:18;21.23;;;13.63;;
22786;SDS011;63134;52.020;4.714;2022-11-11T19:38:23;24.17;;;15.90;;
22786;SDS011;63134;52.020;4.714;2022-11-11T19:41:29;23.45;;;16.17;;
22786;SDS011;63134;52.020;4.714;2022-11-11T19:44:34;25.15;;;16.15;;
22786;SDS011;63134;52.020;4.714;2022-11-11T19:47:38;27.80;;;15.88;;
22786;SDS011;63134;52.020;4.714;2022-11-11T19:50:47;33.38;;;17.17;;
22786;SDS011;63134;52.020;4.714;2022-11-11T19:53:51;24.52;;;17.55;;
22786;SDS011;63134;52.020;4.714;2022-11-11T19:57:00;28.58;;;18.02;;
22786;SDS011;63134;52.020;4.714;2022-11-11T20:00:04;25.63;;;16.40;;
22786;SDS011;63134;52.020;4.714;2022-11-11T20:03:11;29.17;;;15.38;;
22786;SDS011;63134;52.020;4.714;2022-11-11T20:06:29;34.30;;;21.77;;
22786;SDS011;63134;52.020;4.714;2022-11-11T20:09:37;36.03;;;20.05;;
22786;SDS011;63134;52.020;4.714;2022-11-11T20:12:42;37.88;;;26.30;;
22786;SDS011;63134;52.020;4.714;2022-11-11T20:15:46;40.95;;;26.52;;
22786;SDS011;63134;52.020;4.714;2022-11-11T20:18:56;29.13;;;19.35;;
22786;SDS011;63134;52.020;4.714;2022-11-11T20:22:03;33.10;;;19.00;;
22786;SDS011;63134;52.020;4.714;2022-11-11T20:25:08;30.50;;;19.48;;
22786;SDS011;63134;52.020;4.714;2022-11-11T20:28:13;37.67;;;20.80;;
22786;SDS011;63134;52.020;4.714;2022-11-11T20:31:17;31.42;;;19.30;;
22786;SDS011;63134;52.020;4.714;2022-11-11T20:34:21;33.53;;;20.52;;
22786;SDS011;63134;52.020;4.714;2022-11-11T20:37:26;36.15;;;21.75;;
22786;SDS011;63134;52.020;4.714;2022-11-11T20:40:31;51.47;;;30.27;;
22786;SDS011;63134;52.020;4.714;2022-11-11T20:43:38;29.63;;;21.65;;
22786;SDS011;63134;52.020;4.714;2022-11-11T20:46:43;31.67;;;20.07;;
22786;SDS011;63134;52.020;4.714;2022-11-11T20:49:47;29.80;;;19.92;;
22786;SDS011;63134;52.020;4.714;2022-11-11T20:52:52;35.50;;;21.92;;
22786;SDS011;63134;52.020;4.714;2022-11-11T20:56:00;37.30;;;23.98;;
22786;SDS011;63134;52.020;4.714;2022-11-11T20:59:07;30.88;;;21.42;;
22786;SDS011;63134;52.020;4.714;2022-11-11T21:02:11;40.03;;;22.50;;
22786;SDS011;63134;52.020;4.714;2022-11-11T21:05:15;34.67;;;22.23;;
22786;SDS011;63134;52.020;4.714;2022-11-11T21:08:24;37.20;;;24.48;;
22786;SDS011;63134;52.020;4.714;2022-11-11T21:11:34;33.22;;;21.80;;